sensor_id;sensor_type;location;lat;lon;timestamp;temperature;humidity
51914;DHT22;37940;53.002;6.930;2023-02-26T00:02:25;-0.60;99.90
51914;DHT22;37940;53.002;6.930;2023-02-26T00:04:51;0.10;99.90
51914;DHT22;37940;53.002;6.930;2023-02-26T00:07:17;-0.60;99.90
51914;DHT22;37940;53.002;6.930;2023-02-26T00:09:42;-0.60;99.90
51914;DHT22;37940;53.002;6.930;2023-02-26T00:12:11;-0.70;99.90
51914;DHT22;37940;53.002;6.930;2023-02-26T00:14:37;-0.50;99.90
51914;DHT22;37940;53.002;6.930;2023-02-26T00:19:45;-0.80;99.90
51914;DHT22;37940;53.002;6.930;2023-02-26T00:22:11;-0.90;99.90
51914;DHT22;37940;53.002;6.930;2023-02-26T00:24:37;-1.00;99.90
51914;DHT22;37940;53.002;6.930;2023-02-26T00:27:03;-1.00;99.90
51914;DHT22;37940;53.002;6.930;2023-02-26T00:29:29;-1.10;99.90
51914;DHT22;37940;53.002;6.930;2023-02-26T00:31:55;-1.10;99.90
51914;DHT22;37940;53.002;6.930;2023-02-26T00:34:21;-1.20;99.90
51914;DHT22;37940;53.002;6.930;2023-02-26T00:42:12;-1.40;99.90
51914;DHT22;37940;53.002;6.930;2023-02-26T00:44:39;-1.40;99.90
51914;DHT22;37940;53.002;6.930;2023-02-26T00:50:00;-1.20;99.90
51914;DHT22;37940;53.002;6.930;2023-02-26T00:54:56;-1.10;99.90
51914;DHT22;37940;53.002;6.930;2023-02-26T00:57:21;-1.10;99.90
51914;DHT22;37940;53.002;6.930;2023-02-26T00:59:47;-1.10;99.90
51914;DHT22;37940;53.002;6.930;2023-02-26T01:02:13;-0.20;99.90
51914;DHT22;37940;53.002;6.930;2023-02-26T01:04:39;-1.20;99.90
51914;DHT22;37940;53.002;6.930;2023-02-26T01:07:06;-1.10;99.90
51914;DHT22;37940;53.002;6.930;2023-02-26T01:09:35;-1.10;99.90
51914;DHT22;37940;53.002;6.930;2023-02-26T01:12:05;-1.00;99.90
51914;DHT22;37940;53.002;6.930;2023-02-26T01:14:32;-1.00;99.90
51914;DHT22;37940;53.002;6.930;2023-02-26T01:17:28;-0.90;99.90
51914;DHT22;37940;53.002;6.930;2023-02-26T01:22:59;-0.90;99.90
51914;DHT22;37940;53.002;6.930;2023-02-26T01:28:07;-0.90;99.90
51914;DHT22;37940;53.002;6.930;2023-02-26T01:30:33;-0.90;99.90
51914;DHT22;37940;53.002;6.930;2023-02-26T01:35:53;-1.00;99.90
51914;DHT22;37940;53.002;6.930;2023-02-26T01:38:38;-1.00;99.90
51914;DHT22;37940;53.002;6.930;2023-02-26T01:41:32;-1.40;99.90
51914;DHT22;37940;53.002;6.930;2023-02-26T01:49:22;-1.00;99.90
51914;DHT22;37940;53.002;6.930;2023-02-26T01:51:59;-1.00;99.90
51914;DHT22;37940;53.002;6.930;2023-02-26T01:54:32;-1.00;99.90
51914;DHT22;37940;53.002;6.930;2023-02-26T01:57:10;-1.10;99.90
51914;DHT22;37940;53.002;6.930;2023-02-26T01:59:46;-1.10;99.90
51914;DHT22;37940;53.002;6.930;2023-02-26T02:02:16;-1.10;99.90
51914;DHT22;37940;53.002;6.930;2023-02-26T02:04:43;-1.10;99.90
51914;DHT22;37940;53.002;6.930;2023-02-26T02:07:09;-1.10;99.90
51914;DHT22;37940;53.002;6.930;2023-02-26T02:09:35;-0.60;99.90
51914;DHT22;37940;53.002;6.930;2023-02-26T02:15:16;-1.20;99.90
51914;DHT22;37940;53.002;6.930;2023-02-26T02:18:10;-1.20;99.90
51914;DHT22;37940;53.002;6.930;2023-02-26T02:23:42;-1.20;99.90
51914;DHT22;37940;53.002;6.930;2023-02-26T02:28:58;-1.20;99.90
51914;DHT22;37940;53.002;6.930;2023-02-26T02:31:45;-1.20;99.90
51914;DHT22;37940;53.002;6.930;2023-02-26T02:34:26;-1.30;99.90
51914;DHT22;37940;53.002;6.930;2023-02-26T02:37:00;-1.30;99.90
51914;DHT22;37940;53.002;6.930;2023-02-26T02:39:31;-1.80;99.90
51914;DHT22;37940;53.002;6.930;2023-02-26T02:42:03;-1.00;99.90
51914;DHT22;37940;53.002;6.930;2023-02-26T02:44:34;-1.30;99.90
51914;DHT22;37940;53.002;6.930;2023-02-26T02:47:01;-1.30;99.90
51914;DHT22;37940;53.002;6.930;2023-02-26T02:49:43;-1.30;99.90
51914;DHT22;37940;53.002;6.930;2023-02-26T02:55:05;-1.30;99.90
51914;DHT22;37940;53.002;6.930;2023-02-26T02:58:11;-1.40;99.90
51914;DHT22;37940;53.002;6.930;2023-02-26T03:00:45;-1.40;99.90
51914;DHT22;37940;53.002;6.930;2023-02-26T03:03:24;-1.50;99.90
51914;DHT22;37940;53.002;6.930;2023-02-26T03:05:52;-1.60;99.90
51914;DHT22;37940;53.002;6.930;2023-02-26T03:08:23;-1.80;99.90
51914;DHT22;37940;53.002;6.930;2023-02-26T03:10:51;-1.20;99.90
51914;DHT22;37940;53.002;6.930;2023-02-26T03:13:19;-2.00;99.90
51914;DHT22;37940;53.002;6.930;2023-02-26T03:16:00;-1.80;99.90
51914;DHT22;37940;53.002;6.930;2023-02-26T03:26:41;-2.50;99.90
51914;DHT22;37940;53.002;6.930;2023-02-26T03:29:31;-2.60;99.90
51914;DHT22;37940;53.002;6.930;2023-02-26T03:32:02;-2.60;99.90
51914;DHT22;37940;53.002;6.930;2023-02-26T03:34:46;-2.60;99.90
51914;DHT22;37940;53.002;6.930;2023-02-26T03:39:54;-2.60;99.90
51914;DHT22;37940;53.002;6.930;2023-02-26T03:42:30;-1.70;99.90
51914;DHT22;37940;53.002;6.930;2023-02-26T03:45:00;-2.70;99.90
51914;DHT22;37940;53.002;6.930;2023-02-26T03:47:28;-2.70;99.90
51914;DHT22;37940;53.002;6.930;2023-02-26T03:50:02;-2.70;99.90
51914;DHT22;37940;53.002;6.930;2023-02-26T03:52:33;-2.80;99.90
51914;DHT22;37940;53.002;6.930;2023-02-26T03:55:25;-2.70;99.90
51914;DHT22;37940;53.002;6.930;2023-02-26T03:57:53;-2.90;99.90
51914;DHT22;37940;53.002;6.930;2023-02-26T04:00:20;-3.00;99.90
51914;DHT22;37940;53.002;6.930;2023-02-26T04:05:39;-3.10;99.90
51914;DHT22;37940;53.002;6.930;2023-02-26T04:08:06;-3.10;99.90
51914;DHT22;37940;53.002;6.930;2023-02-26T04:10:43;-2.10;99.90
51914;DHT22;37940;53.002;6.930;2023-02-26T04:13:09;-3.10;99.90
51914;DHT22;37940;53.002;6.930;2023-02-26T04:15:35;-3.10;99.90
51914;DHT22;37940;53.002;6.930;2023-02-26T04:18:01;-3.10;99.90
51914;DHT22;37940;53.002;6.930;2023-02-26T04:20:27;-3.10;99.90
51914;DHT22;37940;53.002;6.930;2023-02-26T04:22:53;-2.40;99.90
51914;DHT22;37940;53.002;6.930;2023-02-26T04:25:18;-2.80;99.90
51914;DHT22;37940;53.002;6.930;2023-02-26T04:27:44;-3.20;99.90
51914;DHT22;37940;53.002;6.930;2023-02-26T04:30:10;-3.20;99.90
51914;DHT22;37940;53.002;6.930;2023-02-26T04:32:36;-3.00;99.90
51914;DHT22;37940;53.002;6.930;2023-02-26T04:35:02;-1.90;99.90
51914;DHT22;37940;53.002;6.930;2023-02-26T04:37:28;-3.30;99.90
51914;DHT22;37940;53.002;6.930;2023-02-26T04:39:54;-2.10;99.90
51914;DHT22;37940;53.002;6.930;2023-02-26T04:42:19;-3.20;99.90
51914;DHT22;37940;53.002;6.930;2023-02-26T04:44:45;-3.20;99.90
51914;DHT22;37940;53.002;6.930;2023-02-26T04:47:11;-3.20;99.90
51914;DHT22;37940;53.002;6.930;2023-02-26T04:49:37;-3.00;99.90
51914;DHT22;37940;53.002;6.930;2023-02-26T04:52:03;-3.20;99.90
51914;DHT22;37940;53.002;6.930;2023-02-26T04:54:29;-3.20;99.90
51914;DHT22;37940;53.002;6.930;2023-02-26T04:56:54;-3.10;99.90
51914;DHT22;37940;53.002;6.930;2023-02-26T04:59:20;-3.20;99.90
51914;DHT22;37940;53.002;6.930;2023-02-26T05:01:47;-2.50;99.90
51914;DHT22;37940;53.002;6.930;2023-02-26T05:04:13;-3.10;99.90
51914;DHT22;37940;53.002;6.930;2023-02-26T05:06:39;-3.00;99.90
51914;DHT22;37940;53.002;6.930;2023-02-26T05:09:05;-3.00;99.90
51914;DHT22;37940;53.002;6.930;2023-02-26T05:11:30;-3.00;99.90
51914;DHT22;37940;53.002;6.930;2023-02-26T05:13:56;-3.00;99.90
51914;DHT22;37940;53.002;6.930;2023-02-26T05:16:22;-2.40;99.90
51914;DHT22;37940;53.002;6.930;2023-02-26T05:18:48;-3.10;99.90
51914;DHT22;37940;53.002;6.930;2023-02-26T05:21:14;-3.00;99.90
51914;DHT22;37940;53.002;6.930;2023-02-26T05:23:39;-3.20;99.90
51914;DHT22;37940;53.002;6.930;2023-02-26T05:26:05;-2.70;99.90
51914;DHT22;37940;53.002;6.930;2023-02-26T05:28:31;-3.20;99.90
51914;DHT22;37940;53.002;6.930;2023-02-26T05:30:58;-2.80;99.90
51914;DHT22;37940;53.002;6.930;2023-02-26T05:33:25;-2.60;99.90
51914;DHT22;37940;53.002;6.930;2023-02-26T05:35:51;-2.90;99.90
51914;DHT22;37940;53.002;6.930;2023-02-26T05:38:16;-2.80;99.90
51914;DHT22;37940;53.002;6.930;2023-02-26T05:40:42;-2.70;99.90
51914;DHT22;37940;53.002;6.930;2023-02-26T05:43:08;-2.60;99.90
51914;DHT22;37940;53.002;6.930;2023-02-26T05:45:34;-2.50;99.90
51914;DHT22;37940;53.002;6.930;2023-02-26T05:47:59;-2.40;99.90
51914;DHT22;37940;53.002;6.930;2023-02-26T05:50:26;-2.30;99.90
51914;DHT22;37940;53.002;6.930;2023-02-26T05:52:51;-2.30;99.90
51914;DHT22;37940;53.002;6.930;2023-02-26T05:55:17;-2.30;99.90
51914;DHT22;37940;53.002;6.930;2023-02-26T05:57:43;-2.40;99.90
51914;DHT22;37940;53.002;6.930;2023-02-26T06:00:10;-2.50;99.90
51914;DHT22;37940;53.002;6.930;2023-02-26T06:02:36;-2.60;99.90
51914;DHT22;37940;53.002;6.930;2023-02-26T06:05:02;-2.30;99.90
51914;DHT22;37940;53.002;6.930;2023-02-26T06:07:28;-2.90;99.90
51914;DHT22;37940;53.002;6.930;2023-02-26T06:09:54;-3.00;99.90
51914;DHT22;37940;53.002;6.930;2023-02-26T06:12:19;-2.80;99.90
51914;DHT22;37940;53.002;6.930;2023-02-26T06:14:45;-3.10;99.90
51914;DHT22;37940;53.002;6.930;2023-02-26T06:17:11;-2.10;99.90
51914;DHT22;37940;53.002;6.930;2023-02-26T06:19:36;-3.20;99.90
51914;DHT22;37940;53.002;6.930;2023-02-26T06:22:02;-3.30;99.90
51914;DHT22;37940;53.002;6.930;2023-02-26T06:24:28;-3.30;99.90
51914;DHT22;37940;53.002;6.930;2023-02-26T06:26:54;-2.40;99.90
51914;DHT22;37940;53.002;6.930;2023-02-26T06:29:20;-2.80;99.90
51914;DHT22;37940;53.002;6.930;2023-02-26T06:31:46;-3.20;99.90
51914;DHT22;37940;53.002;6.930;2023-02-26T06:34:12;-3.20;99.90
51914;DHT22;37940;53.002;6.930;2023-02-26T06:36:38;-3.00;99.90
51914;DHT22;37940;53.002;6.930;2023-02-26T06:39:04;-3.20;99.90
51914;DHT22;37940;53.002;6.930;2023-02-26T06:41:30;-2.80;99.90
51914;DHT22;37940;53.002;6.930;2023-02-26T06:43:55;-3.10;99.90
51914;DHT22;37940;53.002;6.930;2023-02-26T06:46:21;-3.30;99.90
51914;DHT22;37940;53.002;6.930;2023-02-26T06:48:47;-3.30;99.90
51914;DHT22;37940;53.002;6.930;2023-02-26T06:51:13;-2.70;99.90
51914;DHT22;37940;53.002;6.930;2023-02-26T06:53:38;-3.30;99.90
51914;DHT22;37940;53.002;6.930;2023-02-26T06:56:04;-2.20;99.90
51914;DHT22;37940;53.002;6.930;2023-02-26T06:58:30;-3.40;99.90
51914;DHT22;37940;53.002;6.930;2023-02-26T07:00:56;-2.50;99.90
51914;DHT22;37940;53.002;6.930;2023-02-26T07:03:22;-3.20;99.90
51914;DHT22;37940;53.002;6.930;2023-02-26T07:05:47;-3.30;99.90
51914;DHT22;37940;53.002;6.930;2023-02-26T07:08:14;-3.30;99.90
51914;DHT22;37940;53.002;6.930;2023-02-26T07:10:40;-3.20;99.90
51914;DHT22;37940;53.002;6.930;2023-02-26T07:13:06;-3.20;99.90
51914;DHT22;37940;53.002;6.930;2023-02-26T07:15:31;-3.10;99.90
51914;DHT22;37940;53.002;6.930;2023-02-26T07:17:57;-3.00;99.90
51914;DHT22;37940;53.002;6.930;2023-02-26T07:20:25;-3.00;99.90
51914;DHT22;37940;53.002;6.930;2023-02-26T07:22:51;-2.80;99.90
51914;DHT22;37940;53.002;6.930;2023-02-26T07:25:17;-2.60;99.90
51914;DHT22;37940;53.002;6.930;2023-02-26T07:27:43;-1.60;99.90
51914;DHT22;37940;53.002;6.930;2023-02-26T07:30:09;-2.20;99.90
51914;DHT22;37940;53.002;6.930;2023-02-26T07:32:35;-2.10;99.90
51914;DHT22;37940;53.002;6.930;2023-02-26T07:35:01;-2.00;99.90
51914;DHT22;37940;53.002;6.930;2023-02-26T07:37:27;-1.90;99.90
51914;DHT22;37940;53.002;6.930;2023-02-26T07:39:54;-1.90;99.90
51914;DHT22;37940;53.002;6.930;2023-02-26T07:42:20;-1.80;99.90
51914;DHT22;37940;53.002;6.930;2023-02-26T07:44:46;-1.70;99.90
51914;DHT22;37940;53.002;6.930;2023-02-26T07:47:12;-1.60;99.90
51914;DHT22;37940;53.002;6.930;2023-02-26T07:49:38;-1.60;99.90
51914;DHT22;37940;53.002;6.930;2023-02-26T07:52:04;-1.50;99.90
51914;DHT22;37940;53.002;6.930;2023-02-26T07:54:35;-1.50;99.90
51914;DHT22;37940;53.002;6.930;2023-02-26T07:57:02;-1.40;99.90
51914;DHT22;37940;53.002;6.930;2023-02-26T07:59:28;-1.30;99.90
51914;DHT22;37940;53.002;6.930;2023-02-26T08:01:54;-1.20;99.90
51914;DHT22;37940;53.002;6.930;2023-02-26T08:04:20;-1.10;99.90
51914;DHT22;37940;53.002;6.930;2023-02-26T08:06:46;-1.00;99.90
51914;DHT22;37940;53.002;6.930;2023-02-26T08:09:12;-1.00;99.90
51914;DHT22;37940;53.002;6.930;2023-02-26T08:11:38;-0.90;99.90
51914;DHT22;37940;53.002;6.930;2023-02-26T08:14:06;-0.80;99.90
51914;DHT22;37940;53.002;6.930;2023-02-26T08:16:31;-0.80;99.90
51914;DHT22;37940;53.002;6.930;2023-02-26T08:18:57;-0.70;99.90
51914;DHT22;37940;53.002;6.930;2023-02-26T08:21:23;-0.60;99.90
51914;DHT22;37940;53.002;6.930;2023-02-26T08:23:49;0.60;99.90
51914;DHT22;37940;53.002;6.930;2023-02-26T08:26:16;-0.40;99.90
51914;DHT22;37940;53.002;6.930;2023-02-26T08:28:42;0.00;99.90
51914;DHT22;37940;53.002;6.930;2023-02-26T08:31:08;-0.30;99.90
51914;DHT22;37940;53.002;6.930;2023-02-26T08:33:34;-0.20;99.90
51914;DHT22;37940;53.002;6.930;2023-02-26T08:36:00;0.20;99.90
51914;DHT22;37940;53.002;6.930;2023-02-26T08:38:27;0.00;99.90
51914;DHT22;37940;53.002;6.930;2023-02-26T08:40:54;0.10;99.90
51914;DHT22;37940;53.002;6.930;2023-02-26T08:43:20;0.20;99.90
51914;DHT22;37940;53.002;6.930;2023-02-26T08:45:45;0.30;99.90
51914;DHT22;37940;53.002;6.930;2023-02-26T08:48:12;1.20;99.90
51914;DHT22;37940;53.002;6.930;2023-02-26T08:50:38;0.60;99.90
51914;DHT22;37940;53.002;6.930;2023-02-26T08:53:05;0.70;99.90
51914;DHT22;37940;53.002;6.930;2023-02-26T08:55:31;0.80;99.90
51914;DHT22;37940;53.002;6.930;2023-02-26T08:57:57;0.90;99.90
51914;DHT22;37940;53.002;6.930;2023-02-26T09:00:23;1.00;99.90
51914;DHT22;37940;53.002;6.930;2023-02-26T09:02:49;1.10;99.90
51914;DHT22;37940;53.002;6.930;2023-02-26T09:05:15;1.30;99.90
51914;DHT22;37940;53.002;6.930;2023-02-26T09:07:42;1.30;99.90
51914;DHT22;37940;53.002;6.930;2023-02-26T09:10:08;1.40;99.90
51914;DHT22;37940;53.002;6.930;2023-02-26T09:12:35;1.50;99.90
51914;DHT22;37940;53.002;6.930;2023-02-26T09:15:02;1.60;99.90
51914;DHT22;37940;53.002;6.930;2023-02-26T09:17:29;1.70;99.90
51914;DHT22;37940;53.002;6.930;2023-02-26T09:19:55;1.80;99.90
51914;DHT22;37940;53.002;6.930;2023-02-26T09:22:21;1.90;99.90
51914;DHT22;37940;53.002;6.930;2023-02-26T09:24:46;2.00;99.90
51914;DHT22;37940;53.002;6.930;2023-02-26T09:27:12;2.10;99.90
51914;DHT22;37940;53.002;6.930;2023-02-26T09:29:38;2.20;99.90
51914;DHT22;37940;53.002;6.930;2023-02-26T09:32:04;2.30;99.90
51914;DHT22;37940;53.002;6.930;2023-02-26T09:34:36;2.40;99.90
51914;DHT22;37940;53.002;6.930;2023-02-26T09:37:04;2.50;99.90
51914;DHT22;37940;53.002;6.930;2023-02-26T09:39:30;2.70;99.90
51914;DHT22;37940;53.002;6.930;2023-02-26T09:42:02;2.80;99.90
51914;DHT22;37940;53.002;6.930;2023-02-26T09:44:33;2.90;99.90
51914;DHT22;37940;53.002;6.930;2023-02-26T09:49:43;3.10;99.90
51914;DHT22;37940;53.002;6.930;2023-02-26T09:52:15;3.20;99.90
51914;DHT22;37940;53.002;6.930;2023-02-26T09:54:46;3.30;99.90
51914;DHT22;37940;53.002;6.930;2023-02-26T09:57:25;3.40;99.90
51914;DHT22;37940;53.002;6.930;2023-02-26T09:59:52;3.50;99.90
51914;DHT22;37940;53.002;6.930;2023-02-26T10:05:15;3.70;99.90
51914;DHT22;37940;53.002;6.930;2023-02-26T10:08:13;3.80;99.90
51914;DHT22;37940;53.002;6.930;2023-02-26T10:13:30;4.00;99.90
51914;DHT22;37940;53.002;6.930;2023-02-26T10:16:04;4.10;99.90
51914;DHT22;37940;53.002;6.930;2023-02-26T10:18:33;4.10;99.90
51914;DHT22;37940;53.002;6.930;2023-02-26T10:23:59;4.30;99.90
51914;DHT22;37940;53.002;6.930;2023-02-26T10:26:36;4.40;99.90
51914;DHT22;37940;53.002;6.930;2023-02-26T10:34:45;4.50;99.90
51914;DHT22;37940;53.002;6.930;2023-02-26T10:40:16;4.70;99.90
51914;DHT22;37940;53.002;6.930;2023-02-26T10:42:49;4.70;99.90
51914;DHT22;37940;53.002;6.930;2023-02-26T10:48:43;4.80;99.90
51914;DHT22;37940;53.002;6.930;2023-02-26T10:51:17;4.90;99.90
51914;DHT22;37940;53.002;6.930;2023-02-26T10:53:48;4.90;99.90
51914;DHT22;37940;53.002;6.930;2023-02-26T10:56:21;4.80;99.90
51914;DHT22;37940;53.002;6.930;2023-02-26T10:58:50;4.80;99.90
51914;DHT22;37940;53.002;6.930;2023-02-26T11:01:20;4.80;99.90
51914;DHT22;37940;53.002;6.930;2023-02-26T11:03:50;4.80;99.90
51914;DHT22;37940;53.002;6.930;2023-02-26T11:06:23;4.90;99.90
51914;DHT22;37940;53.002;6.930;2023-02-26T11:08:52;5.00;99.90
51914;DHT22;37940;53.002;6.930;2023-02-26T11:11:48;4.90;99.90
51914;DHT22;37940;53.002;6.930;2023-02-26T11:14:15;4.70;99.90
51914;DHT22;37940;53.002;6.930;2023-02-26T11:16:48;4.60;99.90
51914;DHT22;37940;53.002;6.930;2023-02-26T11:19:15;4.50;99.90
51914;DHT22;37940;53.002;6.930;2023-02-26T11:21:44;4.40;99.90
51914;DHT22;37940;53.002;6.930;2023-02-26T11:24:16;4.30;99.90
51914;DHT22;37940;53.002;6.930;2023-02-26T11:26:46;4.30;99.90
51914;DHT22;37940;53.002;6.930;2023-02-26T11:29:20;4.30;99.90
51914;DHT22;37940;53.002;6.930;2023-02-26T11:31:54;4.30;99.90
51914;DHT22;37940;53.002;6.930;2023-02-26T11:34:24;4.30;99.90
51914;DHT22;37940;53.002;6.930;2023-02-26T11:36:52;4.40;99.90
51914;DHT22;37940;53.002;6.930;2023-02-26T11:39:25;4.50;99.90
51914;DHT22;37940;53.002;6.930;2023-02-26T11:41:56;4.60;99.90
51914;DHT22;37940;53.002;6.930;2023-02-26T11:44:38;4.80;99.90
51914;DHT22;37940;53.002;6.930;2023-02-26T11:47:16;5.00;99.90
51914;DHT22;37940;53.002;6.930;2023-02-26T11:49:46;5.10;99.90
51914;DHT22;37940;53.002;6.930;2023-02-26T11:58:23;5.20;99.90
51914;DHT22;37940;53.002;6.930;2023-02-26T12:00:53;5.30;99.90
51914;DHT22;37940;53.002;6.930;2023-02-26T12:03:26;5.20;99.90
51914;DHT22;37940;53.002;6.930;2023-02-26T12:05:53;5.10;99.90
51914;DHT22;37940;53.002;6.930;2023-02-26T12:08:35;5.10;99.90
51914;DHT22;37940;53.002;6.930;2023-02-26T12:40:55;5.50;99.90
51914;DHT22;37940;53.002;6.930;2023-02-26T12:57:53;5.50;99.90
51914;DHT22;37940;53.002;6.930;2023-02-26T13:12:38;5.70;99.90
51914;DHT22;37940;53.002;6.930;2023-02-26T13:15:26;5.60;99.90
51914;DHT22;37940;53.002;6.930;2023-02-26T13:21:20;5.80;99.90
51914;DHT22;37940;53.002;6.930;2023-02-26T13:26:22;6.00;99.90
51914;DHT22;37940;53.002;6.930;2023-02-26T13:28:55;6.00;99.90
51914;DHT22;37940;53.002;6.930;2023-02-26T13:32:03;6.00;99.90
51914;DHT22;37940;53.002;6.930;2023-02-26T13:34:40;6.00;99.90
51914;DHT22;37940;53.002;6.930;2023-02-26T13:37:33;6.00;99.90
51914;DHT22;37940;53.002;6.930;2023-02-26T13:45:37;5.90;99.90
51914;DHT22;37940;53.002;6.930;2023-02-26T13:50:52;5.90;99.90
51914;DHT22;37940;53.002;6.930;2023-02-26T13:55:54;6.00;99.90
51914;DHT22;37940;53.002;6.930;2023-02-26T13:58:37;6.10;99.90
51914;DHT22;37940;53.002;6.930;2023-02-26T14:01:16;5.90;99.90
51914;DHT22;37940;53.002;6.930;2023-02-26T14:06:37;5.70;99.90
51914;DHT22;37940;53.002;6.930;2023-02-26T14:12:02;5.80;99.90
51914;DHT22;37940;53.002;6.930;2023-02-26T14:14:35;5.80;99.90
51914;DHT22;37940;53.002;6.930;2023-02-26T14:19:39;5.60;99.90
51914;DHT22;37940;53.002;6.930;2023-02-26T14:27:37;5.10;99.90
51914;DHT22;37940;53.002;6.930;2023-02-26T14:32:53;5.40;99.90
51914;DHT22;37940;53.002;6.930;2023-02-26T14:35:23;5.40;99.90
51914;DHT22;37940;53.002;6.930;2023-02-26T14:38:00;5.40;99.90
51914;DHT22;37940;53.002;6.930;2023-02-26T14:40:31;5.40;99.90
51914;DHT22;37940;53.002;6.930;2023-02-26T14:43:02;5.30;99.90
51914;DHT22;37940;53.002;6.930;2023-02-26T14:47:57;5.20;99.90
51914;DHT22;37940;53.002;6.930;2023-02-26T14:50:25;5.20;99.90
51914;DHT22;37940;53.002;6.930;2023-02-26T15:08:17;5.20;99.90
51914;DHT22;37940;53.002;6.930;2023-02-26T15:16:38;5.00;99.90
51914;DHT22;37940;53.002;6.930;2023-02-26T15:25:34;5.00;99.90
51914;DHT22;37940;53.002;6.930;2023-02-26T15:28:02;5.00;99.90
51914;DHT22;37940;53.002;6.930;2023-02-26T15:30:30;5.00;99.90
51914;DHT22;37940;53.002;6.930;2023-02-26T15:32:58;4.90;99.90
51914;DHT22;37940;53.002;6.930;2023-02-26T15:35:27;4.80;99.90
51914;DHT22;37940;53.002;6.930;2023-02-26T15:37:55;4.60;99.90
51914;DHT22;37940;53.002;6.930;2023-02-26T15:40:24;4.50;99.90
51914;DHT22;37940;53.002;6.930;2023-02-26T15:42:54;4.50;99.90
51914;DHT22;37940;53.002;6.930;2023-02-26T15:45:41;4.70;99.90
51914;DHT22;37940;53.002;6.930;2023-02-26T15:48:19;4.50;99.90
51914;DHT22;37940;53.002;6.930;2023-02-26T15:50:51;4.50;99.90
51914;DHT22;37940;53.002;6.930;2023-02-26T15:55:58;4.30;99.90
51914;DHT22;37940;53.002;6.930;2023-02-26T15:58:46;4.20;99.90
51914;DHT22;37940;53.002;6.930;2023-02-26T16:01:22;4.10;99.90
51914;DHT22;37940;53.002;6.930;2023-02-26T16:03:50;4.10;99.90
51914;DHT22;37940;53.002;6.930;2023-02-26T16:06:36;4.00;99.90
51914;DHT22;37940;53.002;6.930;2023-02-26T16:09:06;4.00;99.90
51914;DHT22;37940;53.002;6.930;2023-02-26T16:11:37;4.00;99.90
51914;DHT22;37940;53.002;6.930;2023-02-26T16:14:05;3.90;99.90
51914;DHT22;37940;53.002;6.930;2023-02-26T16:16:45;3.90;99.90
51914;DHT22;37940;53.002;6.930;2023-02-26T16:19:18;3.80;99.90
51914;DHT22;37940;53.002;6.930;2023-02-26T16:21:46;3.80;99.90
51914;DHT22;37940;53.002;6.930;2023-02-26T16:24:18;3.70;99.90
51914;DHT22;37940;53.002;6.930;2023-02-26T16:26:56;3.70;99.90
51914;DHT22;37940;53.002;6.930;2023-02-26T16:29:29;3.60;99.90
51914;DHT22;37940;53.002;6.930;2023-02-26T16:31:57;3.50;99.90
51914;DHT22;37940;53.002;6.930;2023-02-26T16:34:41;3.50;99.90
51914;DHT22;37940;53.002;6.930;2023-02-26T16:37:34;3.50;99.90
51914;DHT22;37940;53.002;6.930;2023-02-26T16:48:05;3.40;99.90
51914;DHT22;37940;53.002;6.930;2023-02-26T16:50:34;3.40;99.90
51914;DHT22;37940;53.002;6.930;2023-02-26T16:53:07;3.40;99.90
51914;DHT22;37940;53.002;6.930;2023-02-26T16:55:36;3.40;99.90
51914;DHT22;37940;53.002;6.930;2023-02-26T16:58:04;3.40;99.90
51914;DHT22;37940;53.002;6.930;2023-02-26T17:00:32;3.40;99.90
51914;DHT22;37940;53.002;6.930;2023-02-26T17:05:32;3.30;99.90
51914;DHT22;37940;53.002;6.930;2023-02-26T17:10:44;3.20;99.90
51914;DHT22;37940;53.002;6.930;2023-02-26T17:13:17;3.10;99.90
51914;DHT22;37940;53.002;6.930;2023-02-26T17:15:45;3.10;99.90
51914;DHT22;37940;53.002;6.930;2023-02-26T17:18:12;3.00;99.90
51914;DHT22;37940;53.002;6.930;2023-02-26T17:20:38;2.90;99.90
51914;DHT22;37940;53.002;6.930;2023-02-26T17:23:06;2.90;99.90
51914;DHT22;37940;53.002;6.930;2023-02-26T17:25:45;2.90;99.90
51914;DHT22;37940;53.002;6.930;2023-02-26T17:28:21;3.40;99.90
51914;DHT22;37940;53.002;6.930;2023-02-26T17:30:47;2.80;99.90
51914;DHT22;37940;53.002;6.930;2023-02-26T17:33:13;2.80;99.90
51914;DHT22;37940;53.002;6.930;2023-02-26T17:35:40;2.90;99.90
51914;DHT22;37940;53.002;6.930;2023-02-26T17:38:07;2.80;99.90
51914;DHT22;37940;53.002;6.930;2023-02-26T17:40:34;2.70;99.90
51914;DHT22;37940;53.002;6.930;2023-02-26T17:43:03;2.70;99.90
51914;DHT22;37940;53.002;6.930;2023-02-26T17:45:30;2.60;99.90
51914;DHT22;37940;53.002;6.930;2023-02-26T17:47:56;2.60;99.90
51914;DHT22;37940;53.002;6.930;2023-02-26T17:52:59;2.50;99.90
51914;DHT22;37940;53.002;6.930;2023-02-26T17:55:25;2.50;99.90
51914;DHT22;37940;53.002;6.930;2023-02-26T17:57:51;2.40;99.90
51914;DHT22;37940;53.002;6.930;2023-02-26T18:00:18;2.40;99.90
51914;DHT22;37940;53.002;6.930;2023-02-26T18:02:43;2.30;99.90
51914;DHT22;37940;53.002;6.930;2023-02-26T18:05:10;2.20;99.90
51914;DHT22;37940;53.002;6.930;2023-02-26T18:07:36;2.10;99.90
51914;DHT22;37940;53.002;6.930;2023-02-26T18:10:03;2.00;99.90
51914;DHT22;37940;53.002;6.930;2023-02-26T18:12:29;1.90;99.90
51914;DHT22;37940;53.002;6.930;2023-02-26T18:14:55;1.90;99.90
51914;DHT22;37940;53.002;6.930;2023-02-26T18:17:26;1.80;99.90
51914;DHT22;37940;53.002;6.930;2023-02-26T18:19:53;1.70;99.90
51914;DHT22;37940;53.002;6.930;2023-02-26T18:22:20;1.60;99.90
51914;DHT22;37940;53.002;6.930;2023-02-26T18:24:50;1.60;99.90
51914;DHT22;37940;53.002;6.930;2023-02-26T18:27:18;1.50;99.90
51914;DHT22;37940;53.002;6.930;2023-02-26T18:29:45;2.30;99.90
51914;DHT22;37940;53.002;6.930;2023-02-26T18:32:16;1.40;99.90
51914;DHT22;37940;53.002;6.930;2023-02-26T18:34:42;1.30;99.90
51914;DHT22;37940;53.002;6.930;2023-02-26T18:37:15;1.20;99.90
51914;DHT22;37940;53.002;6.930;2023-02-26T18:39:42;1.10;99.90
51914;DHT22;37940;53.002;6.930;2023-02-26T18:42:22;1.20;99.90
51914;DHT22;37940;53.002;6.930;2023-02-26T18:44:50;1.00;99.90
51914;DHT22;37940;53.002;6.930;2023-02-26T18:47:17;1.60;99.90
51914;DHT22;37940;53.002;6.930;2023-02-26T18:49:43;1.40;99.90
51914;DHT22;37940;53.002;6.930;2023-02-26T18:52:09;0.90;99.90
51914;DHT22;37940;53.002;6.930;2023-02-26T18:54:35;0.80;99.90
51914;DHT22;37940;53.002;6.930;2023-02-26T18:57:03;0.80;99.90
51914;DHT22;37940;53.002;6.930;2023-02-26T18:59:29;0.70;99.90
51914;DHT22;37940;53.002;6.930;2023-02-26T19:01:55;0.60;99.90
51914;DHT22;37940;53.002;6.930;2023-02-26T19:04:21;0.60;99.90
51914;DHT22;37940;53.002;6.930;2023-02-26T19:06:51;1.00;99.90
51914;DHT22;37940;53.002;6.930;2023-02-26T19:09:17;1.70;99.90
51914;DHT22;37940;53.002;6.930;2023-02-26T19:11:45;0.50;99.90
51914;DHT22;37940;53.002;6.930;2023-02-26T19:14:11;0.50;99.90
51914;DHT22;37940;53.002;6.930;2023-02-26T19:16:37;0.50;99.90
51914;DHT22;37940;53.002;6.930;2023-02-26T19:19:08;0.50;99.90
51914;DHT22;37940;53.002;6.930;2023-02-26T19:21:35;0.50;99.90
51914;DHT22;37940;53.002;6.930;2023-02-26T19:24:06;0.50;99.90
51914;DHT22;37940;53.002;6.930;2023-02-26T19:26:33;0.50;99.90
51914;DHT22;37940;53.002;6.930;2023-02-26T19:29:00;0.50;99.90
51914;DHT22;37940;53.002;6.930;2023-02-26T19:31:26;0.50;99.90
51914;DHT22;37940;53.002;6.930;2023-02-26T19:33:51;0.50;99.90
51914;DHT22;37940;53.002;6.930;2023-02-26T19:36:17;0.60;99.90